createdAt,value
2023-05-12T00:00:07.918Z,9.7
2023-05-12T00:05:25.670Z,9.6
2023-05-12T00:11:10.909Z,9.6
2023-05-12T00:16:31.674Z,9.7
2023-05-12T00:22:11.245Z,9.8
2023-05-12T00:27:41.744Z,9.9
2023-05-12T00:33:06.954Z,10
2023-05-12T00:39:01.707Z,10
2023-05-12T00:44:39.043Z,9.9
2023-05-12T00:49:51.283Z,10
2023-05-12T00:55:38.225Z,9.8
2023-05-12T01:00:54.061Z,9.8
2023-05-12T01:06:34.593Z,9.8
2023-05-12T01:12:15.562Z,9.8
2023-05-12T01:23:11.029Z,9.8
2023-05-12T01:28:42.058Z,9.8
2023-05-12T01:34:31.728Z,9.7
2023-05-12T01:40:02.386Z,9.4
2023-05-12T01:45:27.573Z,9.4
2023-05-12T01:51:08.037Z,9.4
2023-05-12T01:56:30.890Z,9.5
2023-05-12T02:02:13.802Z,9.6
2023-05-12T02:07:40.103Z,9.6
2023-05-12T02:13:25.228Z,9.5
2023-05-12T02:18:42.206Z,9.6
2023-05-12T02:24:36.744Z,9.6
2023-05-12T02:29:44.313Z,9.6
2023-05-12T02:35:35.302Z,9.7
2023-05-12T02:41:11.652Z,9.7
2023-05-12T02:46:27.740Z,9.8
2023-05-12T02:52:07.739Z,9.7
2023-05-12T02:57:29.050Z,9.7
2023-05-12T03:03:10.589Z,9.8
2023-05-12T03:08:43.543Z,9.9
2023-05-12T03:14:14.569Z,9.8
2023-05-12T03:19:59.408Z,9.9
2023-05-12T03:25:19.908Z,9.9
2023-05-12T03:30:51.618Z,9.8
2023-05-12T03:36:49.148Z,9.9
2023-05-12T03:41:57.661Z,9.8
2023-05-12T03:53:08.450Z,9.9
2023-05-12T03:58:35.903Z,9.9
2023-05-12T04:04:28.130Z,9.9
2023-05-12T04:09:55.713Z,9.9
2023-05-12T04:15:41.213Z,9.8
2023-05-12T04:20:47.054Z,9.9
2023-05-12T04:26:21.999Z,9.9
2023-05-12T04:37:45.931Z,9.9
2023-05-12T05:22:21.729Z,9.9
2023-05-12T08:20:54.906Z,12.8
2023-05-12T08:37:29.474Z,13.5
2023-05-12T08:48:42.842Z,13.8
2023-05-12T08:59:57.403Z,14.2
2023-05-12T09:05:22.438Z,14.7
2023-05-12T09:11:24.446Z,15.1
2023-05-12T09:17:02.403Z,15.1
2023-05-12T09:22:28.228Z,13.7
2023-05-12T09:27:57.285Z,13.7
2023-05-12T09:33:47.743Z,13.4
2023-05-12T09:39:07.254Z,13.7
2023-05-12T10:07:13.179Z,15.7
2023-05-12T10:24:11.815Z,15
2023-05-12T10:29:41.052Z,14.7
2023-05-12T10:40:49.601Z,15.1
2023-05-12T11:14:28.480Z,15.2
2023-05-12T11:20:17.121Z,15.3
2023-05-12T11:48:16.672Z,15.2
2023-05-12T12:44:47.313Z,17.2
2023-05-12T16:46:24.490Z,16.2
2023-05-12T22:32:43.868Z,12.9
2023-05-12T22:43:47.739Z,12.4
2023-05-12T22:49:24.796Z,12.3
2023-05-12T23:06:23.691Z,12
